Navin Harrier — V7LK4 — position and weather

sailwx.info

Track history (hours):
 
Tides and Currents Weather Stations Pressure Air Temp Water Temp Dewpoint Dewpoint Depression Visibility Wind Speed Wind Dir Waves Ship Positions

Navin Harrier

Last reported at 2017-Sep-10 23:43 UTC. Time now 2017-Sep-22 19:09 UTC.
Position N 36°36' E 014°51'.
Warning: this ship's position is 11 days out of date.

Length 113 m; draft 7.1 m.

Type: Cargo ship. MMSI: 538090483.

Date/timePositionNaut miles runAvg speedWind from/ knotsBaromVisibWave heightAir tempDewpointWater temp
2017-Sep-10 23:43N 36°36' E 014°51'2 8.9
2017-Sep-10 23:30N 36°36' E 014°49'4 9.1
2017-Sep-10 23:00N 36°37' E 014°43'5 9.2
2017-Sep-10 22:30N 36°38' E 014°38'5 9.1
2017-Sep-10 22:00N 36°40' E 014°32'4 9.0
2017-Sep-10 21:30N 36°41' E 014°27'4 8.8
2017-Sep-10 21:00N 36°42' E 014°22'4 8.6
2017-Sep-10 20:30N 36°43' E 014°17'4 8.7
2017-Sep-10 20:00N 36°44' E 014°12'5 9.0
2017-Sep-10 19:30N 36°46' E 014°06'5 9.1
2017-Sep-10 18:57N 36°48' E 014°01'4 8.8
2017-Sep-10 18:30N 36°50' E 013°56'4 8.7
2017-Sep-10 18:00N 36°51' E 013°51'5 9.0
2017-Sep-10 17:30N 36°53' E 013°46'5 9.4
2017-Sep-10 17:00N 36°55' E 013°41'5 9.8
2017-Sep-10 16:30N 36°57' E 013°35'5 9.6
2017-Sep-10 16:00N 36°59' E 013°29'5 9.7
2017-Sep-10 15:30N 37°00' E 013°23'5 9.5
2017-Sep-10 15:00N 37°01' E 013°18'10 9.3
2017-Sep-10 13:56N 37°03' E 013°05'4 9.1
2017-Sep-10 13:29N 37°04' E 013°00'4 9.0
2017-Sep-10 13:00N 37°05' E 012°55'5 9.5
2017-Sep-10 12:30N 37°05' E 012°49'5 9.7
2017-Sep-10 12:00N 37°06' E 012°43'5 9.5
2017-Sep-10 11:30N 37°07' E 012°37'5 9.2
2017-Sep-10 10:59N 37°07' E 012°31'4 9.3
2017-Sep-10 10:30N 37°08' E 012°26'5 9.2
2017-Sep-10 10:00N 37°08' E 012°20'4 9.0
2017-Sep-10 09:30N 37°08' E 012°14'15 8.8
2017-Sep-10 07:51N 37°10' E 011°56'4 8.3
2017-Sep-10 07:24N 37°11' E 011°52'7 7.8
2017-Sep-10 06:33N 37°13' E 011°44'0 8.0
2017-Sep-10 06:30N 37°13' E 011°43'21 7.8
2017-Sep-10 03:49N 37°19' E 011°18'2 7.6
2017-Sep-10 03:30N 37°20' E 011°15'4 7.3
2017-Sep-10 03:00N 37°21' E 011°11'5 7.5
2017-Sep-10 02:22N 37°24' E 011°05'3 8.3
2017-Sep-10 01:58N 37°24' E 011°01'6 8.9
2017-Sep-10 01:15N 37°26' E 010°54'2 9.2
2017-Sep-10 01:00N 37°27' E 010°51'226 9.3
2017-Sep-09 00:43N 37°12' E 006°08'  
2017-Sep-06 16:24N 36°01' W 005°12'410.9
2017-Sep-06 16:00N 35°60' W 005°17'510.7
2017-Sep-06 15:30N 35°58' W 005°23'510.3
2017-Sep-06 15:00N 35°57' W 005°29'150 8.8
2017-Sep-05 22:00N 36°24' W 008°32'510.3
2017-Sep-05 21:30N 36°25' W 008°38'1310.3
2017-Sep-05 20:14N 36°29' W 008°54'310.5
2017-Sep-05 19:58N 36°30' W 008°57'510.4
2017-Sep-05 19:30N 36°31' W 009°03'510.3
2017-Sep-05 19:00N 36°32' W 009°09'610.4
2017-Sep-05 18:23N 36°34' W 009°16'610.4
2017-Sep-05 17:48N 36°38' W 009°22'2410.1
2017-Sep-05 15:27N 36°59' W 009°36'1010.2
2017-Sep-05 14:31N 37°09' W 009°39'110.2
2017-Sep-05 14:26N 37°09' W 009°39'1810.5
2017-Sep-05 12:42N 37°27' W 009°44'410.4
2017-Sep-05 12:18N 37°31' W 009°45'2910.2
2017-Sep-05 09:29N 37°59' W 009°54'510.0
2017-Sep-05 08:58N 38°04' W 009°55'510.0
2017-Sep-05 08:30N 38°09' W 009°57'610.3
2017-Sep-05 07:58N 38°14' W 009°58'510.5
2017-Sep-05 07:30N 38°19' W 010°00'510.4
2017-Sep-05 07:00N 38°24' W 010°02'610.4
2017-Sep-05 06:23N 38°30' W 010°03'610.1
2017-Sep-05 05:48N 38°36' W 010°04'410.0
2017-Sep-05 05:27N 38°40' W 010°05'510.2
2017-Sep-05 05:00N 38°44' W 010°06'510.5
2017-Sep-05 04:30N 38°49' W 010°07'510.4
2017-Sep-05 04:00N 38°54' W 010°07'510.7
2017-Sep-05 03:30N 38°60' W 010°06'510.2
2017-Sep-05 03:00N 39°05' W 010°06'510.5
2017-Sep-05 02:30N 39°10' W 010°07'510.7
2017-Sep-05 02:00N 39°15' W 010°07'510.5
2017-Sep-05 01:30N 39°21' W 010°06'810.4
2017-Sep-05 00:45N 39°29' W 010°06'910.2
2017-Sep-04 23:49N 39°38' W 010°06'  
2017-Sep-01 18:49N 49°34' W 003°57'3 9.8
2017-Sep-01 18:30N 49°36' W 003°53'510.0
2017-Sep-01 18:00N 49°38' W 003°47'5 9.7
2017-Sep-01 17:30N 49°41' W 003°40'5 9.5
2017-Sep-01 17:00N 49°43' W 003°34'5 9.3
2017-Sep-01 16:30N 49°46' W 003°28'5 9.3
2017-Sep-01 16:00N 49°48' W 003°22'5 9.3
2017-Sep-01 15:30N 49°50' W 003°15'5 9.3
2017-Sep-01 15:00N 49°53' W 003°09'5 9.4
2017-Sep-01 14:30N 49°55' W 003°03'5 9.6
2017-Sep-01 14:00N 49°57' W 002°56'5 9.7
2017-Sep-01 13:30N 49°59' W 002°49'5111.1
2017-Sep-01 08:52N 50°15' W 001°33'411.2
2017-Sep-01 08:30N 50°16' W 001°27'42 9.7
2017-Sep-01 04:12N 50°27' W 000°24'2 9.1
2017-Sep-01 04:00N 50°28' W 000°21'5 9.1
2017-Sep-01 03:30N 50°29' W 000°14'5 9.2
2017-Sep-01 03:00N 50°30' W 000°07'5 9.4
2017-Sep-01 02:30N 50°31' W 000°00'5 9.5
2017-Sep-01 02:00N 50°33' E 000°07'5 9.7
2017-Sep-01 01:30N 50°34' E 000°14'510.0
2017-Sep-01 01:00N 50°36' E 000°22'510.3
2017-Sep-01 00:30N 50°37' E 000°30'510.3
2017-Sep-01 00:00N 50°39' E 000°37'  
Track history (hours):
 
Tides and Currents Weather Stations Pressure Air Temp Water Temp Dewpoint Dewpoint Depression Visibility Wind Speed Wind Dir Waves Ship Positions

Navin Harrier

Last reported at 2017-Sep-10 23:43 UTC. Time now 2017-Sep-22 19:09 UTC.
Position N 36°36' E 014°51'.
Warning: this ship's position is 11 days out of date.

Length 113 m; draft 7.1 m.

Type: Cargo ship. MMSI: 538090483.

Date/timePositionNaut miles runAvg speedWind from/ knotsBaromVisibWave heightAir tempDewpointWater temp
2017-Sep-10 23:43N 36°36' E 014°51'2 8.9
2017-Sep-10 23:30N 36°36' E 014°49'4 9.1
2017-Sep-10 23:00N 36°37' E 014°43'5 9.2
2017-Sep-10 22:30N 36°38' E 014°38'5 9.1
2017-Sep-10 22:00N 36°40' E 014°32'4 9.0
2017-Sep-10 21:30N 36°41' E 014°27'4 8.8
2017-Sep-10 21:00N 36°42' E 014°22'4 8.6
2017-Sep-10 20:30N 36°43' E 014°17'4 8.7
2017-Sep-10 20:00N 36°44' E 014°12'5 9.0
2017-Sep-10 19:30N 36°46' E 014°06'5 9.1
2017-Sep-10 18:57N 36°48' E 014°01'4 8.8
2017-Sep-10 18:30N 36°50' E 013°56'4 8.7
2017-Sep-10 18:00N 36°51' E 013°51'5 9.0
2017-Sep-10 17:30N 36°53' E 013°46'5 9.4
2017-Sep-10 17:00N 36°55' E 013°41'5 9.8
2017-Sep-10 16:30N 36°57' E 013°35'5 9.6
2017-Sep-10 16:00N 36°59' E 013°29'5 9.7
2017-Sep-10 15:30N 37°00' E 013°23'5 9.5
2017-Sep-10 15:00N 37°01' E 013°18'10 9.3
2017-Sep-10 13:56N 37°03' E 013°05'4 9.1
2017-Sep-10 13:29N 37°04' E 013°00'4 9.0
2017-Sep-10 13:00N 37°05' E 012°55'5 9.5
2017-Sep-10 12:30N 37°05' E 012°49'5 9.7
2017-Sep-10 12:00N 37°06' E 012°43'5 9.5
2017-Sep-10 11:30N 37°07' E 012°37'5 9.2
2017-Sep-10 10:59N 37°07' E 012°31'4 9.3
2017-Sep-10 10:30N 37°08' E 012°26'5 9.2
2017-Sep-10 10:00N 37°08' E 012°20'4 9.0
2017-Sep-10 09:30N 37°08' E 012°14'15 8.8
2017-Sep-10 07:51N 37°10' E 011°56'4 8.3
2017-Sep-10 07:24N 37°11' E 011°52'7 7.8
2017-Sep-10 06:33N 37°13' E 011°44'0 8.0
2017-Sep-10 06:30N 37°13' E 011°43'21 7.8
2017-Sep-10 03:49N 37°19' E 011°18'2 7.6
2017-Sep-10 03:30N 37°20' E 011°15'4 7.3
2017-Sep-10 03:00N 37°21' E 011°11'5 7.5
2017-Sep-10 02:22N 37°24' E 011°05'3 8.3
2017-Sep-10 01:58N 37°24' E 011°01'6 8.9
2017-Sep-10 01:15N 37°26' E 010°54'2 9.2
2017-Sep-10 01:00N 37°27' E 010°51'226 9.3
2017-Sep-09 00:43N 37°12' E 006°08'  
2017-Sep-06 16:24N 36°01' W 005°12'410.9
2017-Sep-06 16:00N 35°60' W 005°17'510.7
2017-Sep-06 15:30N 35°58' W 005°23'510.3
2017-Sep-06 15:00N 35°57' W 005°29'150 8.8
2017-Sep-05 22:00N 36°24' W 008°32'510.3
2017-Sep-05 21:30N 36°25' W 008°38'1310.3
2017-Sep-05 20:14N 36°29' W 008°54'310.5
2017-Sep-05 19:58N 36°30' W 008°57'510.4
2017-Sep-05 19:30N 36°31' W 009°03'510.3
2017-Sep-05 19:00N 36°32' W 009°09'610.4
2017-Sep-05 18:23N 36°34' W 009°16'610.4
2017-Sep-05 17:48N 36°38' W 009°22'2410.1
2017-Sep-05 15:27N 36°59' W 009°36'1010.2
2017-Sep-05 14:31N 37°09' W 009°39'110.2
2017-Sep-05 14:26N 37°09' W 009°39'1810.5
2017-Sep-05 12:42N 37°27' W 009°44'410.4
2017-Sep-05 12:18N 37°31' W 009°45'2910.2
2017-Sep-05 09:29N 37°59' W 009°54'510.0
2017-Sep-05 08:58N 38°04' W 009°55'510.0
2017-Sep-05 08:30N 38°09' W 009°57'610.3
2017-Sep-05 07:58N 38°14' W 009°58'510.5
2017-Sep-05 07:30N 38°19' W 010°00'510.4
2017-Sep-05 07:00N 38°24' W 010°02'610.4
2017-Sep-05 06:23N 38°30' W 010°03'610.1
2017-Sep-05 05:48N 38°36' W 010°04'410.0
2017-Sep-05 05:27N 38°40' W 010°05'510.2
2017-Sep-05 05:00N 38°44' W 010°06'510.5
2017-Sep-05 04:30N 38°49' W 010°07'510.4
2017-Sep-05 04:00N 38°54' W 010°07'510.7
2017-Sep-05 03:30N 38°60' W 010°06'510.2
2017-Sep-05 03:00N 39°05' W 010°06'510.5
2017-Sep-05 02:30N 39°10' W 010°07'510.7
2017-Sep-05 02:00N 39°15' W 010°07'510.5
2017-Sep-05 01:30N 39°21' W 010°06'810.4
2017-Sep-05 00:45N 39°29' W 010°06'910.2
2017-Sep-04 23:49N 39°38' W 010°06'  
2017-Sep-01 18:49N 49°34' W 003°57'3 9.8
2017-Sep-01 18:30N 49°36' W 003°53'510.0
2017-Sep-01 18:00N 49°38' W 003°47'5 9.7
2017-Sep-01 17:30N 49°41' W 003°40'5 9.5
2017-Sep-01 17:00N 49°43' W 003°34'5 9.3
2017-Sep-01 16:30N 49°46' W 003°28'5 9.3
2017-Sep-01 16:00N 49°48' W 003°22'5 9.3
2017-Sep-01 15:30N 49°50' W 003°15'5 9.3
2017-Sep-01 15:00N 49°53' W 003°09'5 9.4
2017-Sep-01 14:30N 49°55' W 003°03'5 9.6
2017-Sep-01 14:00N 49°57' W 002°56'5 9.7
2017-Sep-01 13:30N 49°59' W 002°49'5111.1
2017-Sep-01 08:52N 50°15' W 001°33'411.2
2017-Sep-01 08:30N 50°16' W 001°27'42 9.7
2017-Sep-01 04:12N 50°27' W 000°24'2 9.1
2017-Sep-01 04:00N 50°28' W 000°21'5 9.1
2017-Sep-01 03:30N 50°29' W 000°14'5 9.2
2017-Sep-01 03:00N 50°30' W 000°07'5 9.4
2017-Sep-01 02:30N 50°31' W 000°00'5 9.5
2017-Sep-01 02:00N 50°33' E 000°07'5 9.7
2017-Sep-01 01:30N 50°34' E 000°14'510.0
2017-Sep-01 01:00N 50°36' E 000°22'510.3
2017-Sep-01 00:30N 50°37' E 000°30'510.3
2017-Sep-01 00:00N 50°39' E 000°37'  

Dump ship's entire track history